createdAt,value
2022-10-22T00:00:08.243Z,21.88
2022-10-22T00:02:35.791Z,22.57
2022-10-22T00:05:02.309Z,23.40
2022-10-22T00:07:28.826Z,19.13
2022-10-22T00:09:55.425Z,18.58
2022-10-22T00:12:22.285Z,19.65
2022-10-22T00:14:48.829Z,22.30
2022-10-22T00:17:15.378Z,23.75
2022-10-22T00:19:41.933Z,18.45
2022-10-22T00:22:09.979Z,17.88
2022-10-22T00:24:38.224Z,23.00
2022-10-22T00:27:06.187Z,20.43
2022-10-22T00:29:32.821Z,15.15
2022-10-22T00:31:59.399Z,15.50
2022-10-22T00:34:26.138Z,16.23
2022-10-22T00:36:53.290Z,20.00
2022-10-22T00:39:22.047Z,15.50
2022-10-22T00:41:50.102Z,17.23
2022-10-22T00:44:54.302Z,17.00
2022-10-22T00:47:23.819Z,28.15
2022-10-22T00:49:51.813Z,18.98
2022-10-22T00:52:19.961Z,19.37
2022-10-22T00:54:46.897Z,17.00
2022-10-22T00:57:13.894Z,18.33
2022-10-22T00:59:40.543Z,16.38
2022-10-22T01:02:07.085Z,20.48
2022-10-22T01:04:33.635Z,18.30
2022-10-22T01:07:00.209Z,18.25
2022-10-22T01:09:41.955Z,18.95
2022-10-22T01:12:30.407Z,16.63
2022-10-22T01:15:15.560Z,15.38
2022-10-22T01:17:55.707Z,21.57
2022-10-22T01:20:41.187Z,17.60
2022-10-22T01:23:17.224Z,18.38
2022-10-22T01:25:58.477Z,18.67
2022-10-22T01:28:57.849Z,16.63
2022-10-22T01:31:27.620Z,15.63
2022-10-22T01:33:55.181Z,18.10
2022-10-22T01:36:22.054Z,14.48
2022-10-22T01:38:49.839Z,14.27
2022-10-22T01:41:16.522Z,16.10
2022-10-22T01:43:43.101Z,17.87
2022-10-22T01:46:11.525Z,13.75
2022-10-22T01:48:57.851Z,15.18
2022-10-22T01:51:30.946Z,16.90
2022-10-22T01:54:27.296Z,13.50
2022-10-22T01:57:17.819Z,12.17
2022-10-22T02:00:07.952Z,13.45
2022-10-22T02:02:43.525Z,8.30
2022-10-22T02:05:18.889Z,5.38
2022-10-22T02:08:01.273Z,4.35
2022-10-22T02:10:29.583Z,3.47
2022-10-22T02:12:58.454Z,5.25
2022-10-22T02:15:27.577Z,8.15
2022-10-22T02:17:57.114Z,3.20
2022-10-22T02:20:28.473Z,16.40
2022-10-22T02:22:56.007Z,5.27
2022-10-22T02:25:27.570Z,7.13
2022-10-22T02:28:16.015Z,5.22
2022-10-22T02:30:47.369Z,6.03
2022-10-22T02:33:21.030Z,5.22
2022-10-22T02:35:49.689Z,4.50
2022-10-22T02:38:16.909Z,9.70
2022-10-22T02:40:43.632Z,6.78
2022-10-22T02:43:10.147Z,6.97
2022-10-22T02:45:36.855Z,3.92
2022-10-22T02:48:03.968Z,3.17
2022-10-22T02:50:30.513Z,2.63
2022-10-22T02:52:56.957Z,3.53
2022-10-22T02:55:23.480Z,2.40
2022-10-22T02:57:49.967Z,2.25
2022-10-22T03:00:16.622Z,3.97
2022-10-22T03:02:43.059Z,5.32
2022-10-22T03:05:09.694Z,2.63
2022-10-22T03:07:36.189Z,2.85
2022-10-22T03:10:02.845Z,3.13
2022-10-22T03:12:29.960Z,3.17
2022-10-22T03:14:56.452Z,4.20
2022-10-22T03:17:22.956Z,3.72
2022-10-22T03:19:49.439Z,2.90
2022-10-22T03:22:23.021Z,4.72
2022-10-22T03:24:53.731Z,2.50
2022-10-22T03:27:21.896Z,6.63
2022-10-22T03:29:50.822Z,3.70
2022-10-22T03:32:17.319Z,4.03
2022-10-22T03:34:43.875Z,4.57
2022-10-22T03:37:10.780Z,5.27
2022-10-22T03:39:38.154Z,3.88
2022-10-22T03:42:06.563Z,4.00
2022-10-22T03:44:33.406Z,5.10
2022-10-22T03:47:02.514Z,4.20
2022-10-22T03:49:29.715Z,4.90
2022-10-22T03:51:56.221Z,5.22
2022-10-22T03:54:22.692Z,5.10
2022-10-22T03:56:49.174Z,6.50
2022-10-22T03:59:16.077Z,6.38
2022-10-22T04:01:42.569Z,5.30
2022-10-22T04:04:09.075Z,5.72
2022-10-22T04:06:35.634Z,5.43
2022-10-22T04:09:02.264Z,5.53
2022-10-22T04:11:28.853Z,2.42
2022-10-22T04:13:55.356Z,5.23
2022-10-22T04:16:25.039Z,3.03
2022-10-22T04:18:54.043Z,3.95
2022-10-22T04:21:20.617Z,4.45
2022-10-22T04:23:52.859Z,4.18
2022-10-22T04:26:19.945Z,5.20
2022-10-22T04:28:48.474Z,2.88
2022-10-22T04:31:17.941Z,4.38
2022-10-22T04:33:44.510Z,4.13
2022-10-22T04:36:16.854Z,3.70
2022-10-22T04:38:45.519Z,5.80
2022-10-22T04:41:17.306Z,3.05
2022-10-22T04:43:44.949Z,3.22
2022-10-22T04:46:15.076Z,3.25
2022-10-22T04:48:42.968Z,4.55
2022-10-22T04:51:12.639Z,2.17
2022-10-22T04:53:40.524Z,2.15
2022-10-22T04:56:16.317Z,3.50
2022-10-22T04:58:43.877Z,2.50
2022-10-22T05:01:11.451Z,2.83
2022-10-22T05:03:38.054Z,4.57
2022-10-22T05:06:04.703Z,2.30
2022-10-22T05:08:31.302Z,3.95
2022-10-22T05:10:57.786Z,5.90
2022-10-22T05:13:24.294Z,2.92
2022-10-22T05:15:50.994Z,6.20
2022-10-22T05:18:20.315Z,3.10
2022-10-22T05:20:49.144Z,3.13
2022-10-22T05:23:15.729Z,4.13
2022-10-22T05:25:42.253Z,4.38
2022-10-22T05:28:08.858Z,4.40
2022-10-22T05:30:35.510Z,4.28
2022-10-22T05:33:02.021Z,3.20
2022-10-22T05:35:28.628Z,3.95
2022-10-22T05:40:31.234Z,1.97
2022-10-22T05:42:58.818Z,6.25
2022-10-22T05:45:25.272Z,2.80
2022-10-22T05:47:52.274Z,5.13
2022-10-22T05:50:18.810Z,2.42
2022-10-22T05:52:45.321Z,3.13
2022-10-22T05:55:11.858Z,1.80
2022-10-22T05:57:39.733Z,10.70
2022-10-22T06:00:06.947Z,4.93
2022-10-22T06:02:33.659Z,2.15
2022-10-22T06:05:00.184Z,2.13
2022-10-22T06:07:26.681Z,5.10
2022-10-22T06:09:53.760Z,3.30
2022-10-22T06:12:20.262Z,3.17
2022-10-22T06:14:46.800Z,4.53
2022-10-22T06:17:13.494Z,3.17
2022-10-22T06:19:39.969Z,4.55
2022-10-22T06:22:06.586Z,5.63
2022-10-22T06:24:33.226Z,2.58
2022-10-22T06:26:59.874Z,4.43
2022-10-22T06:29:26.367Z,4.90
2022-10-22T06:31:52.831Z,5.28
2022-10-22T06:34:19.532Z,3.28
2022-10-22T06:36:46.855Z,6.18
2022-10-22T06:39:16.627Z,2.45
2022-10-22T06:41:43.157Z,3.07
2022-10-22T06:44:15.595Z,2.22
2022-10-22T06:46:43.575Z,4.38
2022-10-22T06:49:13.920Z,3.60
2022-10-22T06:51:40.505Z,6.78
2022-10-22T06:54:07.209Z,4.03
2022-10-22T06:56:33.778Z,2.88
2022-10-22T06:59:00.322Z,2.88
2022-10-22T07:01:30.794Z,2.50
2022-10-22T07:03:57.747Z,3.53
2022-10-22T07:06:25.882Z,4.60
2022-10-22T07:08:54.006Z,6.82
2022-10-22T07:11:23.214Z,5.70
2022-10-22T07:13:49.881Z,6.05
2022-10-22T07:16:17.713Z,2.30
2022-10-22T07:18:45.190Z,2.00
2022-10-22T07:21:13.610Z,4.63
2022-10-22T07:23:40.351Z,3.47
2022-10-22T07:26:08.433Z,1.60
2022-10-22T07:28:37.921Z,2.33
2022-10-22T07:31:04.817Z,5.53
2022-10-22T07:33:31.338Z,4.93
2022-10-22T07:36:02.817Z,2.40
2022-10-22T07:38:29.745Z,2.60
2022-10-22T07:40:56.388Z,2.75
2022-10-22T07:43:23.381Z,2.83
2022-10-22T07:45:50.226Z,1.92
2022-10-22T07:48:17.115Z,2.45
2022-10-22T07:53:11.218Z,3.33
2022-10-22T07:55:37.874Z,5.30
2022-10-22T07:58:04.415Z,1.63
2022-10-22T08:00:31.036Z,2.75
2022-10-22T08:02:57.543Z,1.95
2022-10-22T08:05:24.192Z,2.95
2022-10-22T08:07:50.674Z,1.70
2022-10-22T08:10:17.450Z,2.78
2022-10-22T08:12:44.265Z,1.58
2022-10-22T08:15:11.060Z,2.55
2022-10-22T08:17:37.745Z,6.13
2022-10-22T08:20:04.610Z,4.70
2022-10-22T08:22:31.261Z,2.17
2022-10-22T08:24:57.866Z,1.75
2022-10-22T08:27:24.374Z,2.72
2022-10-22T08:29:50.895Z,1.50
2022-10-22T08:32:17.571Z,2.23
2022-10-22T08:34:44.073Z,2.17
2022-10-22T08:37:14.196Z,2.90
2022-10-22T08:39:44.569Z,2.90
2022-10-22T08:42:29.762Z,4.50
2022-10-22T08:45:13.946Z,2.73
2022-10-22T08:48:02.428Z,0.77
2022-10-22T08:50:35.505Z,3.47
2022-10-22T08:53:06.615Z,2.25
2022-10-22T08:55:37.349Z,2.70
2022-10-22T08:58:20.209Z,1.57
2022-10-22T09:00:50.725Z,3.80
2022-10-22T09:04:05.420Z,1.52
2022-10-22T09:06:35.257Z,1.90
2022-10-22T09:09:05.976Z,1.23
2022-10-22T09:11:38.594Z,4.67
2022-10-22T09:14:06.345Z,2.60
2022-10-22T09:16:35.859Z,2.28
2022-10-22T09:19:24.366Z,2.55
2022-10-22T09:22:20.220Z,3.00
2022-10-22T09:24:49.194Z,2.17
2022-10-22T09:27:21.522Z,2.50
2022-10-22T09:29:48.345Z,1.30
2022-10-22T09:32:16.492Z,2.45
2022-10-22T09:34:47.947Z,2.72
2022-10-22T09:37:19.016Z,0.47
2022-10-22T09:39:50.706Z,1.80
2022-10-22T09:42:19.110Z,2.47
2022-10-22T09:44:52.700Z,1.67
2022-10-22T09:47:43.547Z,3.47
2022-10-22T09:50:39.226Z,1.47
2022-10-22T09:53:17.593Z,1.92
2022-10-22T09:55:49.057Z,1.85
2022-10-22T09:58:17.462Z,5.25
2022-10-22T10:00:46.489Z,2.38
2022-10-22T10:03:24.229Z,1.90
2022-10-22T10:06:00.168Z,1.75
2022-10-22T10:08:30.153Z,2.45
2022-10-22T10:11:02.665Z,1.88
2022-10-22T10:13:44.179Z,1.20
2022-10-22T10:16:34.950Z,2.80
2022-10-22T10:19:20.015Z,2.08
2022-10-22T10:22:30.309Z,1.88
2022-10-22T10:25:28.191Z,3.40
2022-10-22T10:28:00.689Z,1.42
2022-10-22T10:30:27.308Z,2.40
2022-10-22T10:33:29.590Z,1.65
2022-10-22T10:36:16.292Z,2.67
2022-10-22T10:38:58.238Z,2.08
2022-10-22T10:41:49.967Z,1.50
2022-10-22T10:44:40.952Z,2.07
2022-10-22T10:47:13.725Z,2.92
2022-10-22T10:49:42.512Z,2.92
2022-10-22T10:52:22.781Z,1.17
2022-10-22T10:54:55.287Z,3.83
2022-10-22T10:57:37.021Z,2.23
2022-10-22T11:00:11.550Z,2.90
2022-10-22T11:03:06.628Z,2.85
2022-10-22T11:05:38.341Z,1.63
2022-10-22T11:08:14.610Z,2.20
2022-10-22T11:10:49.565Z,3.37
2022-10-22T11:13:22.367Z,2.65
2022-10-22T11:15:55.091Z,2.67
2022-10-22T11:18:32.238Z,2.28
2022-10-22T11:21:13.201Z,1.42
2022-10-22T11:24:08.110Z,2.47
2022-10-22T11:26:56.920Z,1.73
2022-10-22T11:29:29.433Z,1.63
2022-10-22T11:32:01.484Z,2.67
2022-10-22T11:34:54.332Z,1.30
2022-10-22T11:37:24.341Z,1.90
2022-10-22T11:39:53.755Z,2.40
2022-10-22T11:42:33.131Z,3.03
2022-10-22T11:45:28.553Z,4.72
2022-10-22T11:48:09.977Z,4.00
2022-10-22T11:50:52.848Z,2.47
2022-10-22T11:53:31.169Z,2.78
2022-10-22T11:56:22.378Z,3.10
2022-10-22T11:58:52.308Z,1.35
2022-10-22T12:01:27.177Z,6.32
2022-10-22T12:04:05.967Z,0.67
2022-10-22T12:06:53.126Z,1.80
2022-10-22T12:09:22.161Z,4.05
2022-10-22T12:11:50.927Z,2.33
2022-10-22T12:14:22.880Z,2.83
2022-10-22T12:17:05.585Z,2.23
2022-10-22T12:19:37.410Z,2.30
2022-10-22T12:22:10.028Z,2.88
2022-10-22T12:24:44.541Z,4.95
2022-10-22T12:27:22.848Z,2.58
2022-10-22T12:29:58.430Z,3.50
2022-10-22T12:32:37.409Z,3.20
2022-10-22T12:35:14.425Z,2.90
2022-10-22T12:37:41.343Z,2.95
2022-10-22T12:40:26.369Z,3.45
2022-10-22T12:42:55.985Z,5.60
2022-10-22T12:45:25.557Z,7.93
2022-10-22T12:47:56.809Z,4.78
2022-10-22T12:50:31.074Z,5.18
2022-10-22T12:52:57.641Z,1.60
2022-10-22T12:55:25.909Z,3.37
2022-10-22T12:57:53.041Z,4.40
2022-10-22T13:00:23.180Z,2.88
2022-10-22T13:02:49.774Z,2.05
2022-10-22T13:05:19.342Z,5.65
2022-10-22T13:07:54.271Z,6.43
2022-10-22T13:10:32.232Z,3.85
2022-10-22T13:12:59.134Z,4.13
2022-10-22T13:15:28.324Z,3.60
2022-10-22T13:18:22.363Z,1.13
2022-10-22T13:20:58.809Z,4.27
2022-10-22T13:23:28.071Z,3.92
2022-10-22T13:25:59.250Z,3.92
2022-10-22T13:28:26.674Z,3.42
2022-10-22T13:30:59.146Z,3.05
2022-10-22T13:33:36.833Z,3.20
2022-10-22T13:36:03.822Z,2.67
2022-10-22T13:38:30.937Z,2.88
2022-10-22T13:40:58.577Z,2.88
2022-10-22T13:43:25.758Z,4.78
2022-10-22T13:45:55.438Z,2.80
2022-10-22T13:48:23.709Z,1.80
2022-10-22T13:50:51.376Z,5.35
2022-10-22T13:53:20.533Z,4.75
2022-10-22T13:55:47.511Z,4.78
2022-10-22T14:00:57.700Z,3.17
2022-10-22T14:03:31.473Z,4.30
2022-10-22T14:05:58.352Z,7.22
2022-10-22T14:08:26.913Z,2.67
2022-10-22T14:10:53.764Z,3.97
2022-10-22T14:13:21.492Z,3.35
2022-10-22T14:15:50.188Z,3.35
2022-10-22T14:18:26.259Z,2.80
2022-10-22T14:20:59.790Z,2.65
2022-10-22T14:23:31.392Z,3.90
2022-10-22T14:25:59.251Z,6.30
2022-10-22T14:28:25.843Z,9.57
2022-10-22T14:30:53.581Z,3.03
2022-10-22T14:33:31.404Z,6.22
2022-10-22T14:36:00.217Z,2.23
2022-10-22T14:38:26.800Z,4.55
2022-10-22T14:40:53.519Z,3.80
2022-10-22T14:43:28.923Z,4.50
2022-10-22T14:45:55.880Z,5.85
2022-10-22T14:48:22.743Z,3.13
2022-10-22T14:50:49.382Z,6.95
2022-10-22T14:53:16.899Z,4.70
2022-10-22T14:55:44.673Z,7.30
2022-10-22T14:58:12.385Z,5.25
2022-10-22T15:00:42.029Z,3.43
2022-10-22T15:03:08.912Z,3.35
2022-10-22T15:05:36.271Z,3.97
2022-10-22T15:08:02.907Z,2.85
2022-10-22T15:10:29.450Z,7.00
2022-10-22T15:12:55.916Z,4.40
2022-10-22T15:15:23.231Z,4.00
2022-10-22T15:17:51.204Z,6.88
2022-10-22T15:20:17.705Z,5.10
2022-10-22T15:22:45.268Z,3.78
2022-10-22T15:25:13.554Z,3.53
2022-10-22T15:27:40.102Z,5.85
2022-10-22T15:30:07.778Z,10.85
2022-10-22T15:32:34.328Z,6.00
2022-10-22T15:35:05.863Z,9.43
2022-10-22T15:37:32.442Z,4.70
2022-10-22T15:40:00.434Z,5.72
2022-10-22T15:42:26.946Z,4.50
2022-10-22T15:45:00.034Z,5.55
2022-10-22T15:47:29.312Z,4.07
2022-10-22T15:49:55.803Z,4.00
2022-10-22T15:52:22.566Z,4.63
2022-10-22T15:54:49.062Z,5.63
2022-10-22T15:57:15.673Z,5.20
2022-10-22T15:59:42.212Z,4.15
2022-10-22T16:02:10.788Z,4.03
2022-10-22T16:04:38.294Z,6.35
2022-10-22T16:07:04.788Z,3.25
2022-10-22T16:09:31.315Z,3.25
2022-10-22T16:11:57.950Z,5.97
2022-10-22T16:14:24.661Z,2.73
2022-10-22T16:16:54.163Z,3.05
2022-10-22T16:19:22.519Z,5.10
2022-10-22T16:21:54.797Z,4.28
2022-10-22T16:24:22.277Z,3.03
2022-10-22T16:26:49.580Z,5.03
2022-10-22T16:29:16.246Z,6.00
2022-10-22T16:31:43.986Z,7.57
2022-10-22T16:34:10.813Z,7.13
2022-10-22T16:36:38.192Z,5.15
2022-10-22T16:39:05.943Z,5.83
2022-10-22T16:41:35.346Z,6.07
2022-10-22T16:44:05.488Z,5.30
2022-10-22T16:46:33.279Z,7.47
2022-10-22T16:48:59.890Z,4.20
2022-10-22T16:51:27.997Z,3.37
2022-10-22T16:53:56.364Z,4.28
2022-10-22T16:56:23.779Z,6.10
2022-10-22T16:58:53.231Z,4.60
2022-10-22T17:01:21.731Z,4.03
2022-10-22T17:03:48.302Z,3.10
2022-10-22T17:06:15.320Z,3.22
2022-10-22T17:08:42.463Z,6.05
2022-10-22T17:11:11.711Z,6.43
2022-10-22T17:13:40.563Z,5.80
2022-10-22T17:16:10.060Z,5.40
2022-10-22T17:18:38.365Z,6.70
2022-10-22T17:21:06.266Z,4.70
2022-10-22T17:23:32.765Z,8.85
2022-10-22T17:26:01.791Z,5.28
2022-10-22T17:28:29.388Z,4.77
2022-10-22T17:31:22.402Z,5.97
2022-10-22T17:33:51.505Z,13.77
2022-10-22T17:36:19.247Z,10.25
2022-10-22T17:38:49.112Z,8.77
2022-10-22T17:41:18.777Z,9.53
2022-10-22T17:46:22.835Z,7.40
2022-10-22T17:48:52.770Z,9.05
2022-10-22T17:51:19.870Z,5.40
2022-10-22T17:53:46.878Z,11.00
2022-10-22T17:56:16.100Z,7.65
2022-10-22T17:58:42.669Z,10.00
2022-10-22T18:01:18.000Z,11.88
2022-10-22T18:03:44.877Z,9.18
2022-10-22T18:06:11.684Z,6.70
2022-10-22T18:08:38.220Z,5.05
2022-10-22T18:11:13.889Z,7.45
2022-10-22T18:13:40.388Z,5.80
2022-10-22T18:16:06.985Z,8.93
2022-10-22T18:18:34.602Z,8.37
2022-10-22T18:21:01.866Z,9.13
2022-10-22T18:23:28.422Z,8.82
2022-10-22T18:25:55.267Z,9.75
2022-10-22T18:28:21.888Z,7.70
2022-10-22T18:30:48.721Z,6.20
2022-10-22T18:33:18.276Z,8.23
2022-10-22T18:35:46.291Z,10.43
2022-10-22T18:38:13.092Z,10.48
2022-10-22T18:40:46.661Z,18.75
2022-10-22T18:43:13.291Z,12.97
2022-10-22T18:45:47.646Z,14.25
2022-10-22T18:48:16.689Z,14.93
2022-10-22T18:50:43.318Z,19.35
2022-10-22T18:53:12.241Z,20.10
2022-10-22T18:55:39.697Z,14.50
2022-10-22T18:58:06.611Z,16.02
2022-10-22T19:00:35.352Z,15.35
2022-10-22T19:03:03.146Z,17.30
2022-10-22T19:05:29.902Z,22.85
2022-10-22T19:07:56.410Z,19.43
2022-10-22T19:10:23.119Z,20.65
2022-10-22T19:12:49.658Z,20.45
2022-10-22T19:15:16.416Z,20.35
2022-10-22T19:17:43.257Z,16.90
2022-10-22T19:20:10.384Z,16.87
2022-10-22T19:22:36.883Z,16.73
2022-10-22T19:25:05.985Z,23.52
2022-10-22T19:27:36.328Z,20.17
2022-10-22T19:30:04.634Z,17.88
2022-10-22T19:32:31.329Z,17.17
2022-10-22T19:34:58.068Z,19.70
2022-10-22T19:37:24.747Z,18.35
2022-10-22T19:39:52.313Z,17.30
2022-10-22T19:42:20.715Z,16.90
2022-10-22T19:44:47.323Z,19.30
2022-10-22T19:47:15.310Z,15.80
2022-10-22T19:49:42.628Z,15.88
2022-10-22T19:52:09.335Z,14.88
2022-10-22T19:54:40.626Z,15.70
2022-10-22T19:57:08.431Z,14.10
2022-10-22T19:59:35.904Z,17.67
2022-10-22T20:02:02.524Z,16.75
2022-10-22T20:04:29.975Z,25.35
2022-10-22T20:06:57.028Z,23.27
2022-10-22T20:09:23.965Z,15.57
2022-10-22T20:11:50.958Z,15.40
2022-10-22T20:14:17.698Z,18.20
2022-10-22T20:16:44.291Z,17.40
2022-10-22T20:19:13.397Z,21.23
2022-10-22T20:21:40.792Z,15.57
2022-10-22T20:24:07.823Z,17.00
2022-10-22T20:26:34.695Z,23.25
2022-10-22T20:29:01.729Z,18.48
2022-10-22T20:31:29.758Z,18.73
2022-10-22T20:34:01.096Z,18.83
2022-10-22T20:36:29.544Z,18.45
2022-10-22T20:39:02.212Z,15.70
2022-10-22T20:41:29.739Z,16.38
2022-10-22T20:43:56.998Z,15.70
2022-10-22T20:46:26.696Z,18.20
2022-10-22T20:48:56.617Z,21.48
2022-10-22T20:51:23.391Z,16.75
2022-10-22T20:53:50.316Z,16.52
2022-10-22T20:56:18.023Z,17.50
2022-10-22T20:58:48.942Z,17.73
2022-10-22T21:01:24.262Z,15.73
2022-10-22T21:03:52.002Z,13.63
2022-10-22T21:06:23.037Z,17.65
2022-10-22T21:08:51.530Z,17.48
2022-10-22T21:11:18.954Z,20.37
2022-10-22T21:13:45.838Z,18.42
2022-10-22T21:16:14.674Z,18.02
2022-10-22T21:18:41.948Z,18.67
2022-10-22T21:21:09.762Z,16.73
2022-10-22T21:23:37.271Z,14.00
2022-10-22T21:26:04.614Z,19.58
2022-10-22T21:28:37.097Z,18.63
2022-10-22T21:31:05.689Z,14.60
2022-10-22T21:33:36.099Z,19.60
2022-10-22T21:36:02.771Z,17.43
2022-10-22T21:38:29.594Z,15.93
2022-10-22T21:40:56.147Z,14.93
2022-10-22T21:43:22.685Z,14.80
2022-10-22T21:45:49.307Z,19.23
2022-10-22T21:48:16.507Z,17.87
2022-10-22T21:50:44.246Z,17.77
2022-10-22T21:53:12.112Z,13.95
2022-10-22T21:55:41.957Z,12.20
2022-10-22T21:58:09.030Z,22.70
2022-10-22T22:00:35.891Z,21.40
2022-10-22T22:03:03.450Z,14.60
2022-10-22T22:05:30.063Z,18.58
2022-10-22T22:07:56.721Z,12.15
2022-10-22T22:10:25.238Z,13.73
2022-10-22T22:12:52.455Z,13.40
2022-10-22T22:15:20.403Z,12.80
2022-10-22T22:17:47.173Z,12.45
2022-10-22T22:20:14.007Z,9.82
2022-10-22T22:22:40.889Z,11.10
2022-10-22T22:25:07.997Z,12.70
2022-10-22T22:27:34.644Z,15.13
2022-10-22T22:30:02.525Z,13.95
2022-10-22T22:32:29.585Z,11.35
2022-10-22T22:34:56.532Z,11.90
2022-10-22T22:37:23.439Z,12.60
2022-10-22T22:39:50.616Z,12.23
2022-10-22T22:42:17.194Z,12.23
2022-10-22T22:44:44.025Z,10.10
2022-10-22T22:47:10.757Z,14.85
2022-10-22T22:49:37.379Z,14.03
2022-10-22T22:52:04.649Z,11.55
2022-10-22T22:54:31.509Z,12.30
2022-10-22T22:56:58.700Z,11.90
2022-10-22T22:59:25.252Z,12.90
2022-10-22T23:01:52.253Z,8.70
2022-10-22T23:04:23.684Z,14.50
2022-10-22T23:06:51.415Z,14.15
2022-10-22T23:11:52.046Z,10.80
2022-10-22T23:14:19.975Z,12.53
2022-10-22T23:16:50.115Z,11.30
2022-10-22T23:19:20.618Z,12.90
2022-10-22T23:21:49.903Z,10.07
2022-10-22T23:24:20.502Z,10.50
2022-10-22T23:26:49.788Z,9.63
2022-10-22T23:29:28.125Z,14.15
2022-10-22T23:31:56.169Z,12.05
2022-10-22T23:34:25.709Z,12.80
2022-10-22T23:36:52.758Z,12.82
2022-10-22T23:39:23.579Z,10.47
2022-10-22T23:41:51.592Z,11.40
2022-10-22T23:44:18.185Z,13.07
2022-10-22T23:46:45.022Z,12.80
2022-10-22T23:49:12.653Z,8.98
2022-10-22T23:51:40.174Z,13.30
2022-10-22T23:54:15.245Z,11.52
2022-10-22T23:56:42.071Z,10.00
2022-10-22T23:59:09.272Z,11.10
